Lapis Arrow — C6VH5 — position and weather

sailwx.info

Track history (hours):
 
Tides and Currents Weather Stations Pressure Air Temp Water Temp Dewpoint Dewpoint Depression Visibility Wind Speed Wind Dir Waves Ship Positions

Lapis Arrow

Last reported at 2015-Jan-20 01:32 UTC. Time now 2015-Jan-30 07:58 UTC.
Position S 34°05' E 017°57'.
Warning: this ship's position is 10 days out of date.

Length 176 m; draft 7.3 m.

Type: Cargo ship. MMSI: 308800800.

Date/timePositionNaut miles runAvg speedWind from/ knotsBaromVisibWave heightAir tempDewpointWater temp
2015-Jan-20 01:32S 34°05' E 017°57'1515.0
2015-Jan-20 00:34S 34°17' E 018°06'32514.0
2015-Jan-19 01:25S 34°32' E 024°40'38014.4
2015-Jan-17 23:05S 30°49' E 030°46'3413.6
2015-Jan-17 20:33S 30°17' E 030°60'1312.9
2015-Jan-17 19:33S 30°05' E 031°04'1212.2
2015-Jan-17 18:32S 29°53' E 031°06'4 3.3
2015-Jan-17 17:24S 29°52' E 031°02'0 0.0
2015-Jan-17 16:24S 29°52' E 031°02'0 0.0
2015-Jan-17 14:12S 29°52' E 031°02'0 0.0
2015-Jan-17 13:18S 29°52' E 031°02'0 0.0
2015-Jan-17 11:18S 29°52' E 031°02'0 0.0
2015-Jan-17 10:12S 29°52' E 031°02'0 0.0
2015-Jan-17 09:18S 29°52' E 031°02'0 0.0
2015-Jan-17 08:30S 29°52' E 031°02'0 0.0
2015-Jan-17 07:24S 29°52' E 031°02'0 0.0
2015-Jan-17 06:28S 29°52' E 031°02'0 0.0
2015-Jan-17 05:28S 29°52' E 031°02'0 0.0
2015-Jan-16 18:17S 29°52' E 031°02'0 0.0
2015-Jan-16 17:11S 29°52' E 031°02'0 0.0
2015-Jan-16 16:22S 29°52' E 031°02'0 0.0
2015-Jan-16 14:34S 29°52' E 031°02'0 0.0
2015-Jan-16 12:33S 29°52' E 031°02'0 0.0
2015-Jan-16 09:33S 29°52' E 031°02'0 0.0
2015-Jan-16 08:27S 29°52' E 031°02'0 0.0
2015-Jan-16 07:33S 29°52' E 031°02'0 0.0
2015-Jan-16 06:27S 29°52' E 031°02'0 0.0
2015-Jan-16 05:05S 29°52' E 031°02'0 0.0
2015-Jan-16 04:29S 29°52' E 031°02'0 0.0
2015-Jan-15 22:17S 29°52' E 031°02'4 2.6
2015-Jan-15 20:34S 29°49' E 031°06'4 4.0
2015-Jan-15 19:34S 29°50' E 031°11'4 4.0
2015-Jan-15 18:34S 29°54' E 031°10'4 4.2
2015-Jan-15 17:31S 29°49' E 031°11'1 1.2
2015-Jan-15 16:18S 29°49' E 031°09'1 1.6
2015-Jan-15 15:33S 29°50' E 031°10'5 4.7
2015-Jan-15 14:31S 29°54' E 031°13'5 4.9
2015-Jan-15 13:33S 29°50' E 031°10'1 0.7
2015-Jan-15 12:34S 29°50' E 031°11'1010.1
2015-Jan-15 11:33S 29°42' E 031°19'1413.4
2015-Jan-15 10:30S 29°33' E 031°31'1313.6
2015-Jan-15 09:31S 29°25' E 031°43'1313.6
2015-Jan-15 08:33S 29°17' E 031°56'  
Track history (hours):
 
Tides and Currents Weather Stations Pressure Air Temp Water Temp Dewpoint Dewpoint Depression Visibility Wind Speed Wind Dir Waves Ship Positions

Lapis Arrow

Last reported at 2015-Jan-20 01:32 UTC. Time now 2015-Jan-30 07:58 UTC.
Position S 34°05' E 017°57'.
Warning: this ship's position is 10 days out of date.

Length 176 m; draft 7.3 m.

Type: Cargo ship. MMSI: 308800800.

Date/timePositionNaut miles runAvg speedWind from/ knotsBaromVisibWave heightAir tempDewpointWater temp
2015-Jan-20 01:32S 34°05' E 017°57'1515.0
2015-Jan-20 00:34S 34°17' E 018°06'32514.0
2015-Jan-19 01:25S 34°32' E 024°40'38014.4
2015-Jan-17 23:05S 30°49' E 030°46'3413.6
2015-Jan-17 20:33S 30°17' E 030°60'1312.9
2015-Jan-17 19:33S 30°05' E 031°04'1212.2
2015-Jan-17 18:32S 29°53' E 031°06'4 3.3
2015-Jan-17 17:24S 29°52' E 031°02'0 0.0
2015-Jan-17 16:24S 29°52' E 031°02'0 0.0
2015-Jan-17 14:12S 29°52' E 031°02'0 0.0
2015-Jan-17 13:18S 29°52' E 031°02'0 0.0
2015-Jan-17 11:18S 29°52' E 031°02'0 0.0
2015-Jan-17 10:12S 29°52' E 031°02'0 0.0
2015-Jan-17 09:18S 29°52' E 031°02'0 0.0
2015-Jan-17 08:30S 29°52' E 031°02'0 0.0
2015-Jan-17 07:24S 29°52' E 031°02'0 0.0
2015-Jan-17 06:28S 29°52' E 031°02'0 0.0
2015-Jan-17 05:28S 29°52' E 031°02'0 0.0
2015-Jan-16 18:17S 29°52' E 031°02'0 0.0
2015-Jan-16 17:11S 29°52' E 031°02'0 0.0
2015-Jan-16 16:22S 29°52' E 031°02'0 0.0
2015-Jan-16 14:34S 29°52' E 031°02'0 0.0
2015-Jan-16 12:33S 29°52' E 031°02'0 0.0
2015-Jan-16 09:33S 29°52' E 031°02'0 0.0
2015-Jan-16 08:27S 29°52' E 031°02'0 0.0
2015-Jan-16 07:33S 29°52' E 031°02'0 0.0
2015-Jan-16 06:27S 29°52' E 031°02'0 0.0
2015-Jan-16 05:05S 29°52' E 031°02'0 0.0
2015-Jan-16 04:29S 29°52' E 031°02'0 0.0
2015-Jan-15 22:17S 29°52' E 031°02'4 2.6
2015-Jan-15 20:34S 29°49' E 031°06'4 4.0
2015-Jan-15 19:34S 29°50' E 031°11'4 4.0
2015-Jan-15 18:34S 29°54' E 031°10'4 4.2
2015-Jan-15 17:31S 29°49' E 031°11'1 1.2
2015-Jan-15 16:18S 29°49' E 031°09'1 1.6
2015-Jan-15 15:33S 29°50' E 031°10'5 4.7
2015-Jan-15 14:31S 29°54' E 031°13'5 4.9
2015-Jan-15 13:33S 29°50' E 031°10'1 0.7
2015-Jan-15 12:34S 29°50' E 031°11'1010.1
2015-Jan-15 11:33S 29°42' E 031°19'1413.4
2015-Jan-15 10:30S 29°33' E 031°31'1313.6
2015-Jan-15 09:31S 29°25' E 031°43'1313.6
2015-Jan-15 08:33S 29°17' E 031°56'  

Dump ship's entire track history